Time;durP1;ratioP1;P1;durP2;ratioP2;P2;SDS_P1;SDS_P2;PMS_P1;PMS_P2;Temp;Humidity;BMP_temperature;BMP_pressure;BME280_temperature;BME280_humidity;BME280_pressure;Samples;Min_cycle;Max_cycle;Signal;HPM_P1;HPM_P2
2023/01/26 00:01:54;;;;;;;27.13;15.00;;;;;;;1.62;89.49;100271.19;5114680;28;20088;-76
2023/01/26 00:04:20;;;;;;;30.95;17.38;;;;;;;1.88;89.55;100281.72;5117950;28;20031;-76
2023/01/26 00:06:45;;;;;;;28.75;16.92;;;;;;;1.99;89.48;100269.72;5117494;28;20032;-76
2023/01/26 00:09:14;;;;;;;32.13;18.20;;;;;;;1.91;89.46;100275.69;5115997;28;20101;-76
2023/01/26 00:11:39;;;;;;;33.40;17.05;;;;;;;1.97;89.49;100280.19;5113499;28;20079;-76
2023/01/26 00:14:05;;;;;;;31.13;17.88;;;;;;;2.13;89.12;100266.56;5116181;28;20054;-76
2023/01/26 00:16:30;;;;;;;30.73;17.58;;;;;;;2.12;88.95;100256.63;5115669;28;20051;-76
2023/01/26 00:18:56;;;;;;;33.55;17.02;;;;;;;2.16;89.04;100243.94;5114818;28;20409;-76
2023/01/26 00:21:23;;;;;;;35.92;15.43;;;;;;;2.19;89.47;100249.78;5116195;28;20081;-77
2023/01/26 00:23:50;;;;;;;32.30;16.48;;;;;;;2.17;89.33;100240.09;5115304;28;20034;-76
2023/01/26 00:26:19;;;;;;;36.75;18.65;;;;;;;2.18;89.94;100248.13;5114955;28;20489;-76
2023/01/26 00:28:44;;;;;;;32.13;17.92;;;;;;;2.24;88.88;100249.03;5116530;28;20032;-76
2023/01/26 00:31:21;;;;;;;29.25;15.82;;;;;;;2.29;88.41;100249.06;5113422;28;20050;-76
2023/01/26 00:33:47;;;;;;;25.30;15.48;;;;;;;1.88;88.58;100256.91;5116575;28;20027;-77
2023/01/26 00:36:13;;;;;;;29.88;15.52;;;;;;;2.05;88.74;100265.09;5116685;28;20383;-76
2023/01/26 00:38:40;;;;;;;36.45;18.17;;;;;;;2.16;88.48;100260.53;5112745;28;20032;-76
2023/01/26 00:41:05;;;;;;;30.33;17.45;;;;;;;2.16;88.28;100255.84;5116454;28;20020;-76
2023/01/26 00:43:31;;;;;;;30.23;17.77;;;;;;;2.21;87.55;100250.38;5115880;28;20073;-76
2023/01/26 00:45:57;;;;;;;26.85;15.38;;;;;;;2.01;88.16;100245.47;5113517;28;20036;-76
2023/01/26 00:48:22;;;;;;;35.83;20.60;;;;;;;2.03;88.06;100243.28;5115566;28;20590;-76
2023/01/26 00:50:49;;;;;;;32.72;18.35;;;;;;;1.80;88.64;100250.72;5115617;28;20583;-76
2023/01/26 00:53:16;;;;;;;33.25;17.60;;;;;;;1.82;88.46;100244.97;5115128;28;20027;-76
2023/01/26 00:55:41;;;;;;;33.60;17.45;;;;;;;1.52;90.40;100249.84;5118309;28;20020;-76
2023/01/26 00:58:08;;;;;;;29.88;16.75;;;;;;;1.43;90.91;100245.84;5118077;28;20524;-76
2023/01/26 01:00:35;;;;;;;32.25;17.50;;;;;;;1.07;93.19;100245.34;5120525;28;20035;-76
2023/01/26 01:03:01;;;;;;;30.63;16.83;;;;;;;1.10;93.45;100242.09;5120887;28;20027;-77
2023/01/26 01:05:28;;;;;;;36.53;19.45;;;;;;;1.39;92.76;100240.03;5120558;28;20126;-76
2023/01/26 01:07:54;;;;;;;36.90;18.80;;;;;;;1.53;92.33;100239.66;5117769;28;20510;-77
2023/01/26 01:10:20;;;;;;;40.78;18.67;;;;;;;1.54;92.04;100241.31;5117075;28;20035;-76
2023/01/26 01:12:45;;;;;;;35.08;17.33;;;;;;;1.60;91.87;100239.47;5119543;28;20039;-76
2023/01/26 01:15:11;;;;;;;42.72;18.83;;;;;;;1.61;91.71;100232.84;5117212;28;20044;-76
2023/01/26 01:17:36;;;;;;;31.23;18.98;;;;;;;1.65;91.33;100232.09;5118553;28;20413;-76
2023/01/26 01:20:04;;;;;;;37.13;19.17;;;;;;;1.77;91.23;100233.88;5119040;28;20485;-77
2023/01/26 01:22:31;;;;;;;36.33;20.25;;;;;;;1.84;91.50;100222.66;5116847;28;20111;-77
2023/01/26 01:24:56;;;;;;;36.83;20.00;;;;;;;1.77;90.62;100228.38;5117911;28;20031;-76
2023/01/26 01:27:22;;;;;;;31.67;17.83;;;;;;;1.70;90.38;100220.28;5118125;28;20602;-77
2023/01/26 01:29:49;;;;;;;38.10;20.83;;;;;;;1.72;90.73;100217.25;5120636;28;20058;-76
2023/01/26 01:32:14;;;;;;;36.88;20.55;;;;;;;1.79;90.45;100221.47;5119189;28;20034;-76
2023/01/26 01:34:40;;;;;;;41.70;21.15;;;;;;;1.68;90.36;100222.44;5123547;28;20032;-77
2023/01/26 01:37:05;;;;;;;44.58;22.85;;;;;;;1.70;90.59;100214.78;5120066;28;20031;-77
2023/01/26 01:39:31;;;;;;;40.00;20.88;;;;;;;1.78;90.32;100202.44;5119103;28;20031;-73
2023/01/26 01:41:56;;;;;;;40.95;21.20;;;;;;;1.88;90.28;100208.09;5119906;28;20028;-77
2023/01/26 01:44:23;;;;;;;37.42;20.80;;;;;;;1.78;89.44;100202.44;5118758;28;20486;-77
2023/01/26 01:46:59;;;;;;;37.28;21.08;;;;;;;1.81;89.69;100205.53;5119133;28;20504;-77
2023/01/26 01:49:32;;;;;;;33.22;18.52;;;;;;;1.89;89.53;100198.72;5118626;28;20097;-77
2023/01/26 01:52:04;;;;;;;37.42;17.88;;;;;;;1.99;89.24;100197.97;5118996;28;20024;-77
2023/01/26 01:54:42;;;;;;;37.78;19.00;;;;;;;2.06;89.06;100206.91;5116624;28;20036;-77
2023/01/26 01:57:17;;;;;;;33.97;20.30;;;;;;;1.93;89.44;100180.53;5116483;28;20032;-76
2023/01/26 01:59:50;;;;;;;29.48;17.45;;;;;;;1.99;89.53;100178.66;5118233;28;20024;-77
2023/01/26 02:02:16;;;;;;;49.58;20.90;;;;;;;1.97;89.86;100172.56;5117982;28;20034;-77
2023/01/26 02:04:42;;;;;;;36.88;21.00;;;;;;;2.09;89.62;100175.16;5115692;28;20037;-76
2023/01/26 02:07:10;;;;;;;41.40;20.63;;;;;;;2.13;89.68;100181.00;5117351;28;20027;-76
2023/01/26 02:12:28;;;;;;;41.17;19.23;;;;;;;2.20;89.06;100173.34;5097685;28;20509;-75
2023/01/26 02:14:55;;;;;;;33.80;18.48;;;;;;;2.24;88.85;100177.25;5096893;28;20460;-77
2023/01/26 02:17:21;;;;;;;33.90;18.38;;;;;;;2.22;88.88;100168.41;5108425;28;20028;-77
2023/01/26 02:20:29;;;;;;;36.83;19.45;;;;;;;2.24;89.03;100183.59;5116881;28;20085;-77
2023/01/26 02:23:06;;;;;;;35.38;18.45;;;;;;;2.29;88.25;100177.28;5036045;28;20507;-75
2023/01/26 02:25:51;;;;;;;34.65;19.15;;;;;;;2.29;87.88;100169.00;5092858;28;20040;-76
2023/01/26 02:28:19;;;;;;;42.50;20.38;;;;;;;2.22;87.55;100165.63;5114275;28;20028;-77
2023/01/26 02:30:45;;;;;;;44.55;19.67;;;;;;;2.21;86.61;100158.44;5114607;28;20043;-77
2023/01/26 02:33:31;;;;;;;39.00;19.80;;;;;;;2.19;87.11;100168.94;5115331;28;20024;-77
2023/01/26 02:35:57;;;;;;;43.28;20.58;;;;;;;2.17;87.40;100160.91;5118199;27;20024;-75
2023/01/26 02:38:29;;;;;;;46.95;24.25;;;;;;;2.22;87.81;100151.84;5113793;28;20036;-78
2023/01/26 02:40:58;;;;;;;53.75;26.52;;;;;;;2.20;87.60;100152.09;5113813;28;20143;-77
2023/01/26 02:43:26;;;;;;;38.85;21.52;;;;;;;2.13;87.37;100147.88;5116152;27;20035;-77
2023/01/26 02:45:52;;;;;;;40.78;20.27;;;;;;;2.10;87.36;100140.94;5117487;28;20024;-77
2023/01/26 02:49:45;;;;;;;35.28;17.60;;;;;;;2.10;87.44;100139.03;5116116;28;20092;-77
2023/01/26 02:51:03;;;;;;;32.58;18.50;;;;;;;2.03;87.39;100143.91;5116502;28;20036;-77
2023/01/26 02:53:29;;;;;;;41.53;19.63;;;;;;;2.04;87.65;100134.53;5115382;28;20402;-77
2023/01/26 02:55:55;;;;;;;42.28;20.55;;;;;;;2.04;87.60;100134.53;5116521;28;20036;-77
2023/01/26 02:58:20;;;;;;;41.88;21.00;;;;;;;2.14;87.71;100138.50;5116144;28;20496;-77
2023/01/26 03:00:46;;;;;;;41.17;21.17;;;;;;;2.10;87.67;100130.75;5115833;28;20520;-77
2023/01/26 03:03:15;;;;;;;37.60;18.83;;;;;;;2.04;87.79;100134.53;5115100;28;20529;-76
2023/01/26 03:05:41;;;;;;;31.85;17.60;;;;;;;1.79;88.64;100116.66;5116466;28;20033;-77
2023/01/26 03:08:06;;;;;;;35.25;18.20;;;;;;;1.95;88.64;100122.34;5115877;28;20039;-76
2023/01/26 03:10:32;;;;;;;33.03;18.60;;;;;;;2.01;88.40;100114.94;5113239;28;20050;-77
2023/01/26 03:12:58;;;;;;;35.08;18.70;;;;;;;1.96;89.10;100113.78;5115712;28;20032;-77
2023/01/26 03:15:41;;;;;;;41.03;23.10;;;;;;;2.05;88.73;100105.88;5114263;28;20038;-77
2023/01/26 03:29:13;;;;;;;55.28;28.63;;;;;;;1.54;89.93;100090.47;5114951;28;20524;-76
2023/01/26 03:31:38;;;;;;;50.65;25.58;;;;;;;1.71;89.96;100089.56;5114603;28;20099;-77
2023/01/26 03:34:04;;;;;;;45.88;23.58;;;;;;;1.92;89.89;100082.28;5112699;28;20031;-77
2023/01/26 03:36:29;;;;;;;53.08;28.63;;;;;;;1.78;90.51;100076.38;5113342;27;20042;-77
2023/01/26 03:38:55;;;;;;;65.25;35.35;;;;;;;1.80;90.65;100068.66;5112735;28;20039;-77
2023/01/26 03:57:44;;;;;;;44.20;21.90;;;;;;;1.94;91.68;100051.69;5115218;28;20429;-75
2023/01/26 04:00:13;;;;;;;38.92;22.63;;;;;;;1.99;91.81;100048.97;5113423;28;20024;-76
2023/01/26 04:08:20;;;;;;;35.50;21.25;;;;;;;1.96;91.74;100049.50;5115082;28;20501;-76
2023/01/26 04:10:46;;;;;;;42.33;23.33;;;;;;;1.99;91.93;100057.25;5113358;28;20537;-77
2023/01/26 04:21:29;;;;;;;45.65;22.70;;;;;;;2.03;90.31;100052.84;5113704;28;20041;-77
2023/01/26 04:23:56;;;;;;;39.70;22.55;;;;;;;2.06;89.96;100044.06;5113079;28;20023;-77
2023/01/26 04:26:24;;;;;;;41.65;23.80;;;;;;;2.00;89.54;100039.59;5111310;28;20520;-77
2023/01/26 04:28:49;;;;;;;40.95;22.92;;;;;;;2.01;88.97;100026.63;5113282;28;20019;-77
2023/01/26 04:31:15;;;;;;;36.92;21.05;;;;;;;1.94;88.97;100030.44;5111108;28;20188;-77
2023/01/26 04:33:42;;;;;;;42.17;22.83;;;;;;;1.70;89.80;100035.50;5112348;28;20030;-77
2023/01/26 04:36:08;;;;;;;41.63;22.95;;;;;;;1.43;91.46;100035.50;5111973;28;20016;-77
2023/01/26 04:38:34;;;;;;;48.17;27.40;;;;;;;1.26;92.20;100028.13;5110650;28;20029;-77
2023/01/26 04:41:00;;;;;;;45.95;24.77;;;;;;;1.18;93.16;100023.09;5112177;28;20023;-77
2023/01/26 04:43:25;;;;;;;39.92;22.95;;;;;;;1.09;92.60;100014.47;5111942;28;20387;-77
2023/01/26 04:46:02;;;;;;;40.38;25.20;;;;;;;0.95;94.32;100023.13;5112830;28;20074;-77
2023/01/26 04:48:28;;;;;;;48.78;24.77;;;;;;;0.78;95.58;100027.88;5112409;28;20505;-77
2023/01/26 04:51:03;;;;;;;52.53;26.63;;;;;;;0.70;97.45;100027.22;5112156;28;20031;-77
2023/01/26 04:53:30;;;;;;;50.10;29.42;;;;;;;0.80;97.88;100029.28;5111070;28;20442;-77
2023/01/26 04:55:55;;;;;;;47.25;26.52;;;;;;;0.90;97.76;100014.81;5112087;28;20517;-77
2023/01/26 04:58:21;;;;;;;63.47;33.55;;;;;;;0.85;97.04;100031.28;5112498;28;20023;-77
2023/01/26 05:00:54;;;;;;;72.97;35.13;;;;;;;0.76;98.42;100022.59;5111502;28;20020;-76
2023/01/26 05:03:21;;;;;;;68.68;37.00;;;;;;;0.87;98.71;100025.50;5113582;28;20123;-77
2023/01/26 05:05:53;;;;;;;73.68;35.95;;;;;;;0.94;97.93;100026.97;5112122;28;20024;-77
2023/01/26 05:08:22;;;;;;;51.17;26.48;;;;;;;0.89;96.99;100028.81;5110632;28;20019;-77
2023/01/26 05:10:47;;;;;;;50.00;26.42;;;;;;;0.59;97.00;100027.34;5111161;28;20023;-76
2023/01/26 05:13:13;;;;;;;58.30;30.50;;;;;;;0.38;97.94;100025.16;5113240;28;20394;-77
2023/01/26 05:15:39;;;;;;;62.15;31.55;;;;;;;0.51;98.38;100017.63;5112959;28;20024;-77
2023/01/26 05:18:05;;;;;;;47.63;28.25;;;;;;;0.44;98.33;100026.06;5109685;28;20024;-76
2023/01/26 05:20:32;;;;;;;46.05;23.13;;;;;;;0.28;98.67;100017.56;5106596;28;20031;-77
2023/01/26 05:22:58;;;;;;;35.20;19.95;;;;;;;0.11;98.18;100006.59;5110059;28;20425;-77
2023/01/26 05:25:24;;;;;;;43.78;23.98;;;;;;;-0.07;98.49;100017.88;5111978;28;20073;-72
2023/01/26 05:27:49;;;;;;;55.25;26.95;;;;;;;0.12;99.13;100016.53;5110786;28;20028;-76
2023/01/26 05:30:15;;;;;;;37.97;21.75;;;;;;;0.15;99.24;100001.41;5111472;28;20106;-77
2023/01/26 05:32:41;;;;;;;56.58;29.65;;;;;;;-0.09;100.00;99990.59;5110929;28;20016;-78
2023/01/26 05:35:07;;;;;;;66.32;34.47;;;;;;;-0.02;100.00;99993.19;5110769;28;20031;-77
2023/01/26 05:37:33;;;;;;;54.03;28.25;;;;;;;-0.05;100.00;99990.94;5109812;28;20106;-77
2023/01/26 05:39:58;;;;;;;60.20;30.23;;;;;;;-0.24;100.00;99995.88;5111999;28;20107;-77
2023/01/26 05:42:25;;;;;;;52.38;29.38;;;;;;;-0.26;100.00;99982.38;5114525;28;20070;-77
2023/01/26 05:44:50;;;;;;;50.03;26.55;;;;;;;-0.19;100.00;99988.53;5115691;28;20084;-77
2023/01/26 05:47:16;;;;;;;40.53;23.10;;;;;;;-0.08;100.00;99985.94;5114946;28;20020;-76
2023/01/26 05:49:42;;;;;;;39.47;22.55;;;;;;;-0.13;100.00;99994.94;5115295;28;20030;-77
2023/01/26 05:52:19;;;;;;;42.10;21.23;;;;;;;-0.14;100.00;99998.78;5112012;28;20024;-77
2023/01/26 05:54:46;;;;;;;51.90;27.23;;;;;;;-0.24;100.00;99998.63;5111291;28;20069;-77
2023/01/26 05:57:12;;;;;;;54.70;28.65;;;;;;;-0.37;100.00;99995.13;5112503;28;20563;-77
2023/01/26 05:59:37;;;;;;;57.97;33.50;;;;;;;-0.53;100.00;99996.78;5114977;28;20061;-77
2023/01/26 06:02:03;;;;;;;58.28;31.13;;;;;;;-0.54;100.00;99995.09;5108080;28;20498;-77
2023/01/26 06:04:29;;;;;;;61.13;29.95;;;;;;;-0.55;100.00;99998.09;5106745;28;20024;-77
2023/01/26 06:06:57;;;;;;;77.55;37.42;;;;;;;-0.43;100.00;100002.44;5108706;28;20030;-77
2023/01/26 06:09:23;;;;;;;94.57;60.03;;;;;;;-0.62;100.00;99992.75;5108812;27;20023;-77
2023/01/26 06:11:48;;;;;;;70.40;37.72;;;;;;;-0.69;100.00;99987.41;5105597;28;20039;-76
2023/01/26 06:14:14;;;;;;;53.60;26.60;;;;;;;-0.67;100.00;99988.00;5108455;28;20024;-79
2023/01/26 06:16:40;;;;;;;74.95;33.22;;;;;;;-0.57;100.00;99987.38;5112429;28;20028;-77
2023/01/26 06:19:06;;;;;;;48.92;23.77;;;;;;;-0.74;100.00;99990.91;5110794;28;20027;-74
2023/01/26 06:21:32;;;;;;;60.97;30.77;;;;;;;-0.69;100.00;99986.59;5111833;28;20058;-73
2023/01/26 06:23:58;;;;;;;70.78;40.55;;;;;;;-0.66;100.00;99994.34;5112238;28;20063;-76
2023/01/26 06:26:24;;;;;;;119.00;68.60;;;;;;;-0.62;100.00;99988.09;5107845;28;20058;-75
2023/01/26 06:28:51;;;;;;;46.13;25.77;;;;;;;-0.74;100.00;99996.41;5111291;28;20024;-72
2023/01/26 06:31:17;;;;;;;47.60;23.48;;;;;;;-0.75;100.00;99996.66;5106390;28;20036;-71
2023/01/26 06:33:42;;;;;;;72.72;39.53;;;;;;;-0.53;100.00;99999.50;5107332;28;20085;-71
2023/01/26 06:36:11;;;;;;;69.15;35.97;;;;;;;-0.48;100.00;99990.53;5105147;28;20104;-71
2023/01/26 06:38:37;;;;;;;52.70;28.30;;;;;;;-0.46;100.00;99997.47;5099328;28;20020;-71
2023/01/26 06:41:05;;;;;;;47.80;27.40;;;;;;;-0.27;100.00;99999.13;5100496;28;20024;-71
2023/01/26 06:43:33;;;;;;;53.08;26.58;;;;;;;-0.41;100.00;99996.72;5103259;28;20455;-72
2023/01/26 06:45:58;;;;;;;55.58;29.27;;;;;;;-0.53;100.00;99979.47;5108687;28;20513;-71
2023/01/26 06:48:25;;;;;;;44.72;26.95;;;;;;;-0.38;100.00;99976.97;5107158;28;20394;-69
2023/01/26 06:50:51;;;;;;;44.65;23.85;;;;;;;-0.47;100.00;99984.78;5106262;28;20378;-71
2023/01/26 06:53:32;;;;;;;47.53;25.73;;;;;;;-0.35;100.00;99975.63;5106656;28;20020;-72
2023/01/26 06:55:58;;;;;;;47.40;23.95;;;;;;;-0.54;100.00;99972.28;5105977;28;20028;-70
2023/01/26 06:58:23;;;;;;;46.55;25.52;;;;;;;-0.58;100.00;99974.72;5105177;28;20026;-74
2023/01/26 07:00:49;;;;;;;51.85;25.13;;;;;;;-0.73;100.00;99967.03;5107790;28;20023;-70
2023/01/26 07:03:14;;;;;;;48.38;25.77;;;;;;;-0.53;100.00;99966.53;5108061;28;20031;-73
2023/01/26 07:05:40;;;;;;;58.53;31.45;;;;;;;-0.53;100.00;99969.28;5109144;28;20428;-70
2023/01/26 07:08:07;;;;;;;56.92;31.02;;;;;;;-0.40;100.00;99959.03;5108342;28;20035;-69
2023/01/26 07:10:34;;;;;;;57.30;30.15;;;;;;;-0.27;100.00;99949.63;5100562;28;20027;-71
2023/01/26 07:12:59;;;;;;;59.40;32.00;;;;;;;-0.40;100.00;99953.53;5105933;28;20182;-71
2023/01/26 07:15:25;;;;;;;63.63;32.85;;;;;;;-0.54;100.00;99951.13;5108488;28;20488;-71
2023/01/26 07:17:50;;;;;;;61.53;30.80;;;;;;;-0.41;100.00;99943.63;5107041;28;20050;-69
2023/01/26 07:20:16;;;;;;;69.05;35.17;;;;;;;-0.24;100.00;99938.97;5103196;28;20047;-71
2023/01/26 07:22:41;;;;;;;55.75;29.35;;;;;;;-0.22;100.00;99939.56;5107733;28;20023;-69
2023/01/26 07:25:07;;;;;;;62.13;32.58;;;;;;;-0.31;100.00;99943.81;5101769;28;20042;-72
2023/01/26 07:27:32;;;;;;;64.03;31.23;;;;;;;-0.21;100.00;99938.47;5110492;28;20024;-74
2023/01/26 07:29:58;;;;;;;63.72;29.75;;;;;;;-0.45;100.00;99926.81;5111273;28;20102;-73
2023/01/26 07:32:23;;;;;;;56.88;28.42;;;;;;;-0.32;100.00;99933.88;5108246;28;20024;-69
2023/01/26 07:34:49;;;;;;;48.20;26.50;;;;;;;-0.51;100.00;99930.56;5105405;28;20034;-69
2023/01/26 07:37:14;;;;;;;57.72;27.80;;;;;;;-0.27;100.00;99935.88;5096872;28;20517;-71
2023/01/26 07:39:39;;;;;;;46.85;25.10;;;;;;;-0.19;100.00;99938.19;5105468;28;20031;-70
2023/01/26 07:42:05;;;;;;;52.83;24.65;;;;;;;-0.09;100.00;99924.59;5107540;28;20024;-71
2023/01/26 07:44:30;;;;;;;51.78;25.55;;;;;;;0.06;100.00;99931.41;5107396;28;20024;-71
2023/01/26 07:46:56;;;;;;;51.00;24.55;;;;;;;0.35;100.00;99923.81;5107626;28;20502;-70
2023/01/26 07:49:22;;;;;;;51.58;25.08;;;;;;;0.19;100.00;99921.97;5104123;28;20111;-71
2023/01/26 07:51:48;;;;;;;50.15;29.13;;;;;;;0.53;100.00;99924.59;5103676;28;20178;-70
2023/01/26 07:54:13;;;;;;;62.75;30.65;;;;;;;0.74;100.00;99928.41;5107949;28;20052;-70
2023/01/26 07:56:39;;;;;;;55.00;27.60;;;;;;;0.86;100.00;99931.03;5106843;28;20035;-69
2023/01/26 07:59:04;;;;;;;45.85;25.55;;;;;;;0.87;100.00;99931.84;5109249;28;20120;-70
2023/01/26 08:01:30;;;;;;;45.65;25.30;;;;;;;0.82;100.00;99925.19;5107305;28;20023;-70
2023/01/26 08:03:56;;;;;;;44.97;26.33;;;;;;;0.87;100.00;99924.44;5105629;28;20031;-71
2023/01/26 08:06:21;;;;;;;44.80;25.40;;;;;;;0.60;100.00;99925.22;5106941;28;20027;-70
2023/01/26 08:08:52;;;;;;;52.42;28.35;;;;;;;0.74;100.00;99924.84;5103074;27;20031;-71
2023/01/26 08:11:21;;;;;;;68.90;39.92;;;;;;;1.08;100.00;99905.31;5100139;28;20098;-69
2023/01/26 08:13:46;;;;;;;48.03;23.80;;;;;;;1.08;100.00;99914.44;5102836;28;20092;-70
2023/01/26 08:16:12;;;;;;;49.13;27.42;;;;;;;1.07;100.00;99903.66;5100982;28;20494;-70
2023/01/26 08:18:40;;;;;;;109.97;56.63;;;;;;;0.92;100.00;99909.88;5104099;28;20032;-70
2023/01/26 08:21:05;;;;;;;49.45;28.55;;;;;;;0.81;100.00;99908.91;5106250;28;20043;-69
2023/01/26 08:23:31;;;;;;;57.60;32.92;;;;;;;1.07;100.00;99907.25;5103279;28;20012;-70
2023/01/26 08:26:03;;;;;;;46.38;24.77;;;;;;;0.87;100.00;99907.91;5107299;28;20035;-71
2023/01/26 08:28:29;;;;;;;55.83;28.63;;;;;;;1.13;100.00;99905.38;5104487;28;20035;-71
2023/01/26 08:30:55;;;;;;;51.53;30.17;;;;;;;1.23;100.00;99908.25;5102593;28;20046;-71
2023/01/26 08:33:21;;;;;;;47.63;26.38;;;;;;;1.17;100.00;99905.72;5102043;28;20019;-71
2023/01/26 08:35:48;;;;;;;42.05;23.00;;;;;;;1.24;100.00;99901.63;5106787;28;20055;-71
2023/01/26 08:38:13;;;;;;;56.47;21.15;;;;;;;1.15;99.88;99905.09;5106697;28;20032;-71
2023/01/26 08:40:39;;;;;;;49.70;26.98;;;;;;;1.05;100.00;99905.84;5105582;28;20032;-70
2023/01/26 08:43:04;;;;;;;47.60;22.55;;;;;;;0.86;100.00;99908.16;5100270;28;20023;-70
2023/01/26 08:45:30;;;;;;;37.20;19.77;;;;;;;1.17;100.00;99906.53;5100319;28;20056;-70
2023/01/26 08:47:56;;;;;;;41.15;20.25;;;;;;;0.79;100.00;99908.34;5101141;28;20031;-69
2023/01/26 08:50:23;;;;;;;39.40;20.52;;;;;;;0.78;100.00;99901.19;5105154;28;20038;-71
2023/01/26 08:52:49;;;;;;;34.83;20.35;;;;;;;0.45;100.00;99911.28;5105023;28;20434;-71
2023/01/26 08:55:14;;;;;;;43.17;23.45;;;;;;;0.13;100.00;99902.63;5107400;28;20028;-71
2023/01/26 08:57:40;;;;;;;64.80;31.02;;;;;;;0.07;100.00;99898.16;5098974;28;20031;-71
2023/01/26 09:00:06;;;;;;;59.80;32.47;;;;;;;0.07;100.00;99889.06;5107447;28;20527;-71
2023/01/26 09:02:32;;;;;;;54.55;29.10;;;;;;;0.01;100.00;99887.31;5115701;28;20023;-71
2023/01/26 09:04:57;;;;;;;67.35;35.95;;;;;;;-0.27;100.00;99884.47;5120029;27;20477;-71
2023/01/26 09:07:23;;;;;;;64.80;36.83;;;;;;;-0.22;100.00;99892.81;5107198;28;20027;-70
2023/01/26 09:09:48;;;;;;;64.40;37.55;;;;;;;-0.41;100.00;99888.66;5104648;28;20035;-72
2023/01/26 09:12:14;;;;;;;61.35;33.53;;;;;;;-0.39;100.00;99881.84;5099826;28;20030;-71
2023/01/26 09:14:40;;;;;;;58.08;31.02;;;;;;;-0.23;100.00;99885.66;5105552;28;20034;-71
2023/01/26 09:17:06;;;;;;;59.58;29.67;;;;;;;-0.23;100.00;99887.56;5105968;28;20112;-72
2023/01/26 09:19:31;;;;;;;64.50;33.70;;;;;;;-0.32;100.00;99881.66;5104934;28;20106;-72
2023/01/26 09:21:57;;;;;;;59.33;32.13;;;;;;;-0.43;100.00;99878.75;5096142;28;20042;-71
2023/01/26 09:24:22;;;;;;;67.32;35.65;;;;;;;-0.44;100.00;99879.00;5108205;28;20144;-70
2023/01/26 09:26:48;;;;;;;77.93;40.85;;;;;;;-0.24;100.00;99872.13;5108325;28;20066;-71
2023/01/26 09:29:14;;;;;;;86.88;48.35;;;;;;;-0.01;100.00;99860.06;5105936;28;20032;-71
2023/01/26 09:31:40;;;;;;;86.63;46.38;;;;;;;0.30;100.00;99862.38;5108157;28;20107;-71
2023/01/26 09:34:06;;;;;;;85.97;46.58;;;;;;;0.15;100.00;99857.53;5112806;27;20038;-71
2023/01/26 09:36:32;;;;;;;100.15;50.75;;;;;;;0.42;100.00;99846.53;5106269;28;20035;-70
2023/01/26 09:38:58;;;;;;;74.80;40.97;;;;;;;0.60;100.00;99845.38;5111785;28;20027;-73
2023/01/26 09:41:42;;;;;;;70.80;38.38;;;;;;;0.80;100.00;99835.66;5110327;27;20073;-72
2023/01/26 09:44:13;;;;;;;76.97;42.47;;;;;;;0.74;100.00;99828.44;5109178;28;20024;-72
2023/01/26 09:46:59;;;;;;;59.67;34.70;;;;;;;0.70;100.00;99831.69;5108955;28;20391;-72
2023/01/26 09:50:01;;;;;;;63.05;34.42;;;;;;;0.86;100.00;99823.59;5104878;28;20107;-70
2023/01/26 09:52:35;;;;;;;59.13;33.95;;;;;;;0.69;100.00;99818.22;5108502;28;20020;-71
2023/01/26 09:55:05;;;;;;;59.80;32.80;;;;;;;0.46;100.00;99816.59;5101614;28;20494;-71
2023/01/26 09:57:37;;;;;;;;;;;;;;;0.79;100.00;99817.47;5107814;28;20027;-71
2023/01/26 10:00:10;;;;;;;63.28;32.78;;;;;;;0.82;100.00;99805.94;5105369;28;19911;-70
2023/01/26 10:02:59;;;;;;;46.75;24.77;;;;;;;0.45;100.00;99795.66;5105344;28;20031;-70
2023/01/26 10:05:54;;;;;;;43.65;24.27;;;;;;;0.50;100.00;99784.72;5111805;28;20032;-70
2023/01/26 10:08:24;;;;;;;49.03;26.15;;;;;;;0.67;100.00;99793.69;5105454;28;20028;-68
2023/01/26 10:10:53;;;;;;;;;;;;;;;0.31;100.00;99798.00;5111153;28;20065;-70
2023/01/26 10:13:20;;;;;;;78.97;43.38;;;;;;;0.23;100.00;99788.28;5106676;28;19915;-70
2023/01/26 10:16:07;;;;;;;93.30;44.47;;;;;;;0.11;100.00;99785.69;5110520;28;20034;-70
2023/01/26 10:19:00;;;;;;;111.93;51.88;;;;;;;0.13;100.00;99783.50;5101959;28;20539;-71
2023/01/26 10:21:32;;;;;;;88.90;41.30;;;;;;;-0.04;100.00;99783.56;5104147;28;20020;-69
2023/01/26 10:24:00;;;;;;;124.35;55.05;;;;;;;-0.05;100.00;99769.00;5110999;28;20525;-70
2023/01/26 10:26:30;;;;;;;112.40;59.60;;;;;;;0.02;100.00;99763.31;5104509;28;20545;-71
2023/01/26 10:28:56;;;;;;;87.90;43.95;;;;;;;0.07;100.00;99763.34;5109245;28;20032;-70
2023/01/26 10:31:25;;;;;;;82.30;41.17;;;;;;;-0.01;100.00;99750.03;5109494;28;20040;-70
2023/01/26 10:34:08;;;;;;;59.97;30.90;;;;;;;-0.16;100.00;99743.28;5108788;28;20151;-70
2023/01/26 10:36:33;;;;;;;80.38;40.17;;;;;;;-0.10;100.00;99737.88;5118679;27;20510;-72
2023/01/26 10:39:08;;;;;;;61.78;33.90;;;;;;;-0.08;100.00;99727.44;5106930;28;20065;-70
2023/01/26 10:41:34;;;;;;;151.07;84.65;;;;;;;0.01;100.00;99725.03;5106777;27;20134;-71
2023/01/26 10:44:24;;;;;;;119.80;63.80;;;;;;;-0.28;100.00;99717.84;5097473;28;20045;-70
2023/01/26 10:47:14;;;;;;;92.78;48.53;;;;;;;-0.23;100.00;99709.69;5102519;28;20131;-72
2023/01/26 10:49:40;;;;;;;77.47;38.22;;;;;;;-0.27;100.00;99713.19;5094385;28;20422;-70
2023/01/26 10:52:22;;;;;;;70.95;36.65;;;;;;;-0.21;100.00;99713.00;5106260;27;20055;-69
2023/01/26 10:55:08;;;;;;;66.70;29.88;;;;;;;-0.23;100.00;99697.84;5108685;28;20482;-69
2023/01/26 10:57:37;;;;;;;72.35;36.25;;;;;;;-0.20;100.00;99694.56;5108962;28;20082;-69
2023/01/26 11:00:30;;;;;;;75.93;35.50;;;;;;;-0.15;100.00;99697.38;5108677;28;20027;-69
2023/01/26 11:03:10;;;;;;;72.05;35.85;;;;;;;-0.17;100.00;99688.56;5106502;28;20406;-70
2023/01/26 11:05:38;;;;;;;66.78;31.70;;;;;;;-0.23;100.00;99679.44;5108275;28;20489;-70
2023/01/26 11:08:50;;;;;;;61.42;32.13;;;;;;;0.14;100.00;99672.38;5109300;28;20027;-70
2023/01/26 11:11:28;;;;;;;69.43;33.75;;;;;;;0.16;100.00;99661.91;5104311;28;20050;-70
2023/01/26 11:14:14;;;;;;;52.40;27.65;;;;;;;-0.09;100.00;99668.03;5110420;28;20023;-70
2023/01/26 11:16:46;;;;;;;68.68;33.17;;;;;;;-0.04;100.00;99651.56;5107677;28;20058;-70
2023/01/26 11:19:54;;;;;;;67.03;31.70;;;;;;;-0.25;100.00;99650.53;5108098;28;20030;-70
2023/01/26 11:22:35;;;;;;;61.50;28.83;;;;;;;-0.30;100.00;99649.41;5096351;28;20100;-70
2023/01/26 11:25:13;;;;;;;108.10;40.95;;;;;;;-0.43;100.00;99644.28;5109837;28;20107;-70
2023/01/26 11:27:52;;;;;;;69.55;32.35;;;;;;;-0.19;100.00;99644.81;5110709;28;20073;-70
2023/01/26 11:30:56;;;;;;;86.85;38.47;;;;;;;-0.06;100.00;99637.25;5107132;28;20134;-69
2023/01/26 11:33:38;;;;;;;72.93;34.22;;;;;;;-0.11;100.00;99628.94;5079365;28;20032;-69
2023/01/26 11:36:33;;;;;;;62.33;31.73;;;;;;;-0.11;100.00;99626.22;5108198;28;20035;-70
2023/01/26 11:39:23;;;;;;;75.57;33.95;;;;;;;0.13;100.00;99618.44;5107621;28;20053;-70
2023/01/26 11:42:19;;;;;;;55.70;30.08;;;;;;;0.01;100.00;99615.88;5107349;28;20209;-69
2023/01/26 11:45:15;;;;;;;72.93;33.75;;;;;;;0.06;100.00;99596.66;5110415;28;20123;-69
2023/01/26 11:48:14;;;;;;;61.88;29.33;;;;;;;-0.29;100.00;99593.31;5108793;28;20027;-70
2023/01/26 11:50:51;;;;;;;45.70;23.23;;;;;;;0.01;100.00;99587.53;5092764;28;20096;-70
2023/01/26 11:53:48;;;;;;;49.42;25.70;;;;;;;0.18;100.00;99576.38;5103339;28;20066;-70
2023/01/26 11:56:34;;;;;;;62.33;30.48;;;;;;;0.20;100.00;99579.69;5103083;28;20031;-71
2023/01/26 11:59:14;;;;;;;65.13;33.08;;;;;;;0.18;100.00;99573.63;5104241;28;20032;-70
2023/01/26 12:01:45;;;;;;;44.50;24.63;;;;;;;0.10;100.00;99572.19;5108284;28;20089;-70
2023/01/26 12:04:18;;;;;;;64.03;31.77;;;;;;;0.26;100.00;99570.41;5106279;28;20592;-70
2023/01/26 12:06:47;;;;;;;69.45;35.40;;;;;;;0.22;100.00;99574.75;5107270;28;20122;-70
2023/01/26 12:09:21;;;;;;;49.63;26.23;;;;;;;0.20;100.00;99568.69;5103743;28;20038;-70
2023/01/26 12:11:47;;;;;;;49.22;25.38;;;;;;;0.20;100.00;99560.44;5108356;28;20102;-70